Time;durP1;ratioP1;P1;durP2;ratioP2;P2;SDS_P1;SDS_P2;PMS_P1;PMS_P2;Temp;Humidity;BMP_temperature;BMP_pressure;BME280_temperature;BME280_humidity;BME280_pressure;Samples;Min_cycle;Max_cycle;Signal;HPM_P1;HPM_P2
2023/09/12 00:00:23;;;;;;;0.10;0.10;;;;;;;;;;5040933;28;20041;-87
2023/09/12 00:02:49;;;;;;;0.10;0.10;;;;;;;;;;5040318;28;20129;-85
2023/09/12 00:05:15;;;;;;;0.05;0.05;;;;;;;;;;5039546;28;20064;-85
2023/09/12 00:07:41;;;;;;;0.08;0.08;;;;;;;;;;5041239;28;20045;-86
2023/09/12 00:10:07;;;;;;;0.10;0.10;;;;;;;;;;5029814;28;20048;-87
2023/09/12 00:12:33;;;;;;;0.10;0.10;;;;;;;;;;5004518;28;20096;-86
2023/09/12 00:14:59;;;;;;;0.00;0.00;;;;;;;;;;5004602;28;20487;-86
2023/09/12 00:17:26;;;;;;;0.10;0.10;;;;;;;;;;5019620;28;20045;-86
2023/09/12 00:19:52;;;;;;;0.03;0.03;;;;;;;;;;5040709;28;20045;-86
2023/09/12 00:22:18;;;;;;;0.10;0.10;;;;;;;;;;5040819;28;20069;-86
2023/09/12 00:24:44;;;;;;;0.13;0.13;;;;;;;;;;5023035;28;20037;-87
2023/09/12 00:27:10;;;;;;;0.00;0.00;;;;;;;;;;5024410;28;20048;-86
2023/09/12 00:29:36;;;;;;;0.10;0.10;;;;;;;;;;5023578;28;20041;-87
2023/09/12 00:32:03;;;;;;;0.10;0.10;;;;;;;;;;5022574;28;20045;-87
2023/09/12 00:34:29;;;;;;;0.00;0.00;;;;;;;;;;5023391;28;20049;-87
2023/09/12 00:36:55;;;;;;;0.10;0.10;;;;;;;;;;5023753;28;20041;-87
2023/09/12 00:39:21;;;;;;;0.00;0.00;;;;;;;;;;5024104;28;20041;-87
2023/09/12 00:41:47;;;;;;;0.10;0.10;;;;;;;;;;5023268;28;20038;-85
2023/09/12 00:44:13;;;;;;;0.10;0.10;;;;;;;;;;5021423;28;20111;-85
2023/09/12 00:46:39;;;;;;;0.10;0.10;;;;;;;;;;5039531;28;20041;-86
2023/09/12 00:49:05;;;;;;;0.00;0.00;;;;;;;;;;5023171;28;20038;-87
2023/09/12 00:51:32;;;;;;;0.17;0.17;;;;;;;;;;5022818;28;20045;-87
2023/09/12 00:53:58;;;;;;;0.20;0.20;;;;;;;;;;5023335;28;20049;-86
2023/09/12 00:56:24;;;;;;;0.10;0.10;;;;;;;;;;5039921;28;20053;-87
2023/09/12 00:58:51;;;;;;;0.10;0.10;;;;;;;;;;5023109;28;20080;-87
2023/09/12 01:01:18;;;;;;;0.10;0.10;;;;;;;;;;5023680;28;20037;-87
2023/09/12 01:03:44;;;;;;;0.00;0.00;;;;;;;;;;5039076;28;20063;-87
2023/09/12 01:06:10;;;;;;;0.10;0.10;;;;;;;;;;5024298;28;20105;-87
2023/09/12 01:08:39;;;;;;;0.03;0.03;;;;;;;;;;5023880;28;20045;-87
2023/09/12 01:11:05;;;;;;;0.00;0.00;;;;;;;;;;5023147;28;20046;-87
2023/09/12 01:13:31;;;;;;;0.17;0.17;;;;;;;;;;5039603;28;20053;-87
2023/09/12 01:15:57;;;;;;;0.10;0.10;;;;;;;;;;5023381;28;20417;-87
2023/09/12 01:18:23;;;;;;;0.10;0.10;;;;;;;;;;5039874;28;20030;-86
2023/09/12 01:21:19;;;;;;;0.20;0.20;;;;;;;;;;5024296;28;20038;-86
2023/09/12 01:24:12;;;;;;;0.10;0.10;;;;;;;;;;5004557;28;20125;-87
2023/09/12 01:27:00;;;;;;;0.13;0.13;;;;;;;;;;5017477;28;20085;-87
2023/09/12 01:29:27;;;;;;;0.10;0.10;;;;;;;;;;5005447;28;20045;-87
2023/09/12 01:31:54;;;;;;;0.10;0.10;;;;;;;;;;5009507;28;20037;-87
2023/09/12 01:34:20;;;;;;;0.10;0.10;;;;;;;;;;5040025;28;20044;-87
2023/09/12 01:36:46;;;;;;;0.10;0.10;;;;;;;;;;5040304;28;20204;-87
2023/09/12 01:39:12;;;;;;;0.00;0.00;;;;;;;;;;5040180;28;20071;-87
2023/09/12 01:41:48;;;;;;;0.10;0.10;;;;;;;;;;5024066;28;20025;-87
2023/09/12 01:44:14;;;;;;;0.08;0.08;;;;;;;;;;5040609;28;20021;-86
2023/09/12 01:46:42;;;;;;;0.10;0.10;;;;;;;;;;5023327;28;20124;-86
2023/09/12 01:49:08;;;;;;;0.20;0.20;;;;;;;;;;5022811;28;20041;-87
2023/09/12 01:51:34;;;;;;;0.10;0.10;;;;;;;;;;5022691;28;20045;-86
2023/09/12 01:54:00;;;;;;;0.00;0.00;;;;;;;;;;5039151;28;20068;-87
2023/09/12 01:56:26;;;;;;;0.00;0.00;;;;;;;;;;5023037;28;20154;-86
2023/09/12 01:58:52;;;;;;;0.10;0.10;;;;;;;;;;5021911;28;20059;-87
2023/09/12 02:01:18;;;;;;;0.10;0.10;;;;;;;;;;5022709;28;20049;-87
2023/09/12 02:03:44;;;;;;;0.00;0.00;;;;;;;;;;5023113;28;20101;-86
2023/09/12 02:06:10;;;;;;;0.10;0.10;;;;;;;;;;5038657;28;20132;-86
2023/09/12 02:08:36;;;;;;;0.10;0.10;;;;;;;;;;5023234;28;20041;-86
2023/09/12 02:11:02;;;;;;;0.10;0.10;;;;;;;;;;5040370;28;20092;-87
2023/09/12 02:13:28;;;;;;;0.10;0.10;;;;;;;;;;5005531;28;20038;-86
2023/09/12 02:16:02;;;;;;;0.10;0.10;;;;;;;;;;5019716;28;20053;-86
2023/09/12 02:18:28;;;;;;;0.10;0.10;;;;;;;;;;5005500;28;20580;-87
2023/09/12 02:20:55;;;;;;;0.00;0.00;;;;;;;;;;5007583;28;20025;-86
2023/09/12 02:23:21;;;;;;;0.00;0.00;;;;;;;;;;5023210;28;20105;-87
2023/09/12 02:25:47;;;;;;;0.10;0.10;;;;;;;;;;5024067;28;20021;-87
2023/09/12 02:28:13;;;;;;;0.00;0.00;;;;;;;;;;5006345;28;20104;-86
2023/09/12 02:30:42;;;;;;;0.00;0.00;;;;;;;;;;5006622;28;20038;-86
2023/09/12 02:33:09;;;;;;;0.10;0.10;;;;;;;;;;5004628;28;20034;-87
2023/09/12 02:35:35;;;;;;;0.10;0.10;;;;;;;;;;5007002;28;20056;-87
2023/09/12 02:38:01;;;;;;;0.10;0.10;;;;;;;;;;5007381;28;20491;-87
2023/09/12 02:40:27;;;;;;;0.00;0.00;;;;;;;;;;5023386;28;20034;-87
2023/09/12 02:42:53;;;;;;;0.00;0.00;;;;;;;;;;5034112;28;20045;-87
2023/09/12 02:45:19;;;;;;;0.10;0.10;;;;;;;;;;5041653;28;20037;-87
2023/09/12 02:47:46;;;;;;;0.10;0.10;;;;;;;;;;5041583;28;20064;-87
2023/09/12 02:50:12;;;;;;;0.17;0.17;;;;;;;;;;5025864;28;20072;-86
2023/09/12 02:52:38;;;;;;;0.10;0.10;;;;;;;;;;5025772;28;20075;-86
2023/09/12 02:55:04;;;;;;;0.10;0.10;;;;;;;;;;5025264;28;20049;-87
2023/09/12 02:57:30;;;;;;;0.20;0.20;;;;;;;;;;5025366;28;20037;-86
2023/09/12 02:59:56;;;;;;;0.17;0.17;;;;;;;;;;5024683;28;20051;-87
2023/09/12 03:02:22;;;;;;;0.10;0.10;;;;;;;;;;5024207;28;20052;-86
2023/09/12 03:04:48;;;;;;;0.20;0.20;;;;;;;;;;5023691;28;20045;-87
2023/09/12 03:07:14;;;;;;;0.10;0.10;;;;;;;;;;5041153;28;20057;-85
2023/09/12 03:09:40;;;;;;;0.17;0.17;;;;;;;;;;5024789;28;20053;-87
2023/09/12 03:12:06;;;;;;;0.20;0.20;;;;;;;;;;5025717;28;20534;-88
2023/09/12 03:14:32;;;;;;;0.25;0.25;;;;;;;;;;5024280;28;20049;-87
2023/09/12 03:16:58;;;;;;;0.10;0.10;;;;;;;;;;5024044;28;20052;-86
2023/09/12 03:19:24;;;;;;;0.25;0.25;;;;;;;;;;5040456;28;20089;-87
2023/09/12 03:21:50;;;;;;;0.10;0.10;;;;;;;;;;5023436;28;20045;-84
2023/09/12 03:24:18;;;;;;;0.10;0.10;;;;;;;;;;5040187;28;20037;-86
2023/09/12 03:26:44;;;;;;;0.10;0.10;;;;;;;;;;5023323;28;20099;-86
2023/09/12 03:29:10;;;;;;;0.22;0.22;;;;;;;;;;5039609;28;20091;-87
2023/09/12 03:31:36;;;;;;;0.20;0.20;;;;;;;;;;5024043;28;20049;-87
2023/09/12 03:34:02;;;;;;;0.08;0.08;;;;;;;;;;5023898;28;20041;-86
2023/09/12 03:36:28;;;;;;;0.20;0.20;;;;;;;;;;5024473;28;20042;-85
2023/09/12 03:38:54;;;;;;;0.20;0.20;;;;;;;;;;5023765;28;20041;-86
2023/09/12 03:41:25;;;;;;;0.10;0.10;;;;;;;;;;5024060;28;20034;-85
2023/09/12 03:43:51;;;;;;;0.00;0.00;;;;;;;;;;5023072;28;20077;-87
2023/09/12 03:46:17;;;;;;;0.20;0.20;;;;;;;;;;5022603;28;20502;-86
2023/09/12 03:48:43;;;;;;;0.00;0.00;;;;;;;;;;5040389;28;20084;-86
2023/09/12 03:51:09;;;;;;;0.10;0.10;;;;;;;;;;5024206;28;20068;-87
2023/09/12 03:53:35;;;;;;;0.10;0.10;;;;;;;;;;5023581;28;20091;-87
2023/09/12 03:56:01;;;;;;;0.10;0.10;;;;;;;;;;5024420;28;20094;-87
2023/09/12 03:58:27;;;;;;;0.03;0.03;;;;;;;;;;5023639;28;20081;-88
2023/09/12 04:00:53;;;;;;;0.17;0.17;;;;;;;;;;5023779;28;20049;-88
2023/09/12 04:03:20;;;;;;;0.10;0.10;;;;;;;;;;5021419;28;20409;-88
2023/09/12 04:05:47;;;;;;;0.10;0.10;;;;;;;;;;5022849;28;20433;-87
2023/09/12 04:08:13;;;;;;;0.10;0.10;;;;;;;;;;5023655;28;20521;-87
2023/09/12 04:10:39;;;;;;;0.17;0.17;;;;;;;;;;5039974;28;20049;-86
2023/09/12 04:13:05;;;;;;;0.10;0.10;;;;;;;;;;5022790;28;20045;-86
2023/09/12 04:15:31;;;;;;;0.10;0.10;;;;;;;;;;5022211;28;20080;-86
2023/09/12 04:18:05;;;;;;;0.10;0.10;;;;;;;;;;5021872;28;20056;-85
2023/09/12 04:20:31;;;;;;;0.20;0.20;;;;;;;;;;5038894;28;20033;-86
2023/09/12 04:22:57;;;;;;;0.10;0.10;;;;;;;;;;5021920;28;20063;-85
2023/09/12 04:25:23;;;;;;;0.05;0.05;;;;;;;;;;5001417;28;20074;-86
2023/09/12 04:27:49;;;;;;;0.10;0.10;;;;;;;;;;5001255;28;20521;-85
2023/09/12 04:30:15;;;;;;;0.10;0.10;;;;;;;;;;5002243;28;20552;-86
2023/09/12 04:32:41;;;;;;;0.17;0.17;;;;;;;;;;5010399;28;20037;-87
2023/09/12 04:35:07;;;;;;;0.08;0.08;;;;;;;;;;5021516;28;20041;-87
2023/09/12 04:37:33;;;;;;;0.03;0.03;;;;;;;;;;5022032;28;20042;-86
2023/09/12 04:39:59;;;;;;;0.05;0.05;;;;;;;;;;5021953;28;20037;-87
2023/09/12 04:42:25;;;;;;;0.13;0.13;;;;;;;;;;5021939;28;20044;-86
2023/09/12 04:44:52;;;;;;;0.05;0.05;;;;;;;;;;5037642;28;20469;-86
2023/09/12 04:47:18;;;;;;;0.10;0.10;;;;;;;;;;5038026;28;20078;-86
2023/09/12 04:49:44;;;;;;;0.00;0.00;;;;;;;;;;5021600;28;20183;-87
2023/09/12 04:52:10;;;;;;;0.20;0.20;;;;;;;;;;5023529;28;20140;-86
2023/09/12 04:54:36;;;;;;;0.10;0.10;;;;;;;;;;5039318;28;20046;-86
2023/09/12 04:57:02;;;;;;;0.10;0.10;;;;;;;;;;5023312;28;20040;-86
2023/09/12 04:59:28;;;;;;;0.10;0.10;;;;;;;;;;5022612;28;20048;-86
2023/09/12 05:01:54;;;;;;;0.25;0.25;;;;;;;;;;5022072;28;20073;-87
2023/09/12 05:04:20;;;;;;;0.10;0.10;;;;;;;;;;5020997;28;20044;-85
2023/09/12 05:06:46;;;;;;;0.20;0.20;;;;;;;;;;5037621;28;20084;-87
2023/09/12 05:09:12;;;;;;;0.10;0.10;;;;;;;;;;5021469;28;20056;-86
2023/09/12 05:11:38;;;;;;;0.10;0.10;;;;;;;;;;5022604;28;20041;-87
2023/09/12 05:14:04;;;;;;;0.00;0.00;;;;;;;;;;5022241;28;20494;-86
2023/09/12 05:16:30;;;;;;;0.10;0.10;;;;;;;;;;5021750;28;20029;-87
2023/09/12 05:18:56;;;;;;;0.00;0.00;;;;;;;;;;5021747;28;20058;-87
2023/09/12 05:21:23;;;;;;;0.10;0.10;;;;;;;;;;5022655;28;20128;-87
2023/09/12 05:23:49;;;;;;;0.10;0.10;;;;;;;;;;5037032;28;20111;-87
2023/09/12 05:26:15;;;;;;;0.10;0.10;;;;;;;;;;5022042;28;20092;-87
2023/09/12 05:28:41;;;;;;;0.00;0.00;;;;;;;;;;5038216;28;20128;-87
2023/09/12 05:31:07;;;;;;;0.13;0.13;;;;;;;;;;5022148;28;20139;-86
2023/09/12 05:33:34;;;;;;;0.10;0.10;;;;;;;;;;5037981;28;20038;-86
2023/09/12 05:36:00;;;;;;;0.03;0.03;;;;;;;;;;5022809;28;20029;-86
2023/09/12 05:38:26;;;;;;;0.10;0.10;;;;;;;;;;5022486;28;20045;-86
2023/09/12 05:40:52;;;;;;;0.10;0.10;;;;;;;;;;5022805;28;20037;-85
2023/09/12 05:43:19;;;;;;;0.05;0.05;;;;;;;;;;5037429;28;20042;-86
2023/09/12 05:45:45;;;;;;;0.08;0.08;;;;;;;;;;5037522;28;20037;-86
2023/09/12 05:48:11;;;;;;;0.00;0.00;;;;;;;;;;5037294;28;20523;-86
2023/09/12 05:50:37;;;;;;;0.10;0.10;;;;;;;;;;5022436;28;20041;-86
2023/09/12 05:53:03;;;;;;;0.10;0.10;;;;;;;;;;5021667;28;20041;-86
2023/09/12 05:55:29;;;;;;;0.10;0.10;;;;;;;;;;5021643;28;20046;-86
2023/09/12 05:57:55;;;;;;;0.10;0.10;;;;;;;;;;5021648;28;20120;-86
2023/09/12 06:00:22;;;;;;;0.10;0.10;;;;;;;;;;5020914;28;20104;-86
2023/09/12 06:02:48;;;;;;;0.10;0.10;;;;;;;;;;5020976;28;20037;-88
2023/09/12 06:05:15;;;;;;;0.10;0.10;;;;;;;;;;5021057;28;20044;-86
2023/09/12 06:07:41;;;;;;;0.25;0.25;;;;;;;;;;5020986;28;20406;-87
2023/09/12 06:10:08;;;;;;;0.13;0.13;;;;;;;;;;5022142;28;20530;-86
2023/09/12 06:12:36;;;;;;;0.20;0.20;;;;;;;;;;5021400;28;20037;-87
2023/09/12 06:15:02;;;;;;;0.10;0.10;;;;;;;;;;5021062;28;20028;-86
2023/09/12 06:17:28;;;;;;;0.10;0.10;;;;;;;;;;5021499;28;20045;-86
2023/09/12 06:19:55;;;;;;;0.10;0.10;;;;;;;;;;5039543;28;20034;-90
2023/09/12 06:22:22;;;;;;;0.10;0.10;;;;;;;;;;5039363;28;20053;-85
2023/09/12 06:24:49;;;;;;;0.10;0.10;;;;;;;;;;5036596;28;20077;-83
2023/09/12 06:27:18;;;;;;;0.10;0.10;;;;;;;;;;5036910;28;20044;-84
2023/09/12 06:29:49;;;;;;;0.10;0.10;;;;;;;;;;5036504;28;20150;-85
2023/09/12 06:32:16;;;;;;;0.10;0.10;;;;;;;;;;5021143;28;20037;-86
2023/09/12 06:34:42;;;;;;;0.00;0.00;;;;;;;;;;5018302;28;20085;-85
2023/09/12 06:37:08;;;;;;;0.10;0.10;;;;;;;;;;5002075;28;20048;-86
2023/09/12 06:39:34;;;;;;;0.15;0.15;;;;;;;;;;5001424;28;20042;-85
2023/09/12 06:42:00;;;;;;;0.10;0.10;;;;;;;;;;5017957;28;20038;-85
2023/09/12 06:44:26;;;;;;;0.10;0.10;;;;;;;;;;5002533;28;20065;-88
2023/09/12 06:47:13;;;;;;;0.10;0.10;;;;;;;;;;5018026;28;20045;-90
2023/09/12 06:49:39;;;;;;;0.30;0.30;;;;;;;;;;5022807;28;20432;-89
2023/09/12 06:52:05;;;;;;;0.00;0.00;;;;;;;;;;5024107;28;20128;-88
2023/09/12 06:54:33;;;;;;;0.10;0.10;;;;;;;;;;5023489;28;20042;-89
2023/09/12 06:56:59;;;;;;;0.10;0.10;;;;;;;;;;5023733;28;20045;-91
2023/09/12 06:59:25;;;;;;;0.20;0.20;;;;;;;;;;5023335;28;20410;-89
2023/09/12 07:01:51;;;;;;;0.20;0.20;;;;;;;;;;5039541;28;20085;-89
2023/09/12 07:04:17;;;;;;;0.20;0.20;;;;;;;;;;5024627;28;20099;-88
2023/09/12 07:06:43;;;;;;;0.10;0.10;;;;;;;;;;5042895;28;20077;-90
2023/09/12 07:09:11;;;;;;;0.10;0.10;;;;;;;;;;5026266;28;20026;-89
2023/09/12 07:11:37;;;;;;;0.20;0.20;;;;;;;;;;5026492;28;20050;-88
2023/09/12 07:14:03;;;;;;;0.00;0.00;;;;;;;;;;5040037;28;21062;-91
2023/09/12 07:16:30;;;;;;;0.10;0.10;;;;;;;;;;5042002;28;20041;-89
2023/09/12 07:18:57;;;;;;;0.00;0.00;;;;;;;;;;5044300;28;20041;-90
2023/09/12 07:21:23;;;;;;;0.13;0.13;;;;;;;;;;5027200;28;20041;-92
2023/09/12 07:23:49;;;;;;;0.10;0.10;;;;;;;;;;5045791;28;20706;-90
2023/09/12 07:26:15;;;;;;;0.00;0.00;;;;;;;;;;5044247;28;20063;-89
2023/09/12 07:28:41;;;;;;;0.10;0.10;;;;;;;;;;5010499;28;20048;-91
2023/09/12 07:31:08;;;;;;;0.00;0.00;;;;;;;;;;5024915;28;20038;-92
2023/09/12 07:33:34;;;;;;;0.00;0.00;;;;;;;;;;5009913;28;20060;-89
2023/09/12 07:36:18;;;;;;;0.00;0.00;;;;;;;;;;5025953;28;20037;-89
2023/09/12 07:38:45;;;;;;;0.00;0.00;;;;;;;;;;5019134;28;20132;-91
2023/09/12 07:41:11;;;;;;;0.00;0.00;;;;;;;;;;5010071;28;20037;-92
2023/09/12 07:43:37;;;;;;;0.03;0.03;;;;;;;;;;5043611;28;20072;-90
2023/09/12 07:46:04;;;;;;;0.10;0.10;;;;;;;;;;5026210;28;20048;-89
2023/09/12 07:48:30;;;;;;;0.00;0.00;;;;;;;;;;5026462;28;20410;-90
2023/09/12 07:50:56;;;;;;;0.10;0.10;;;;;;;;;;5022212;28;20053;-90
2023/09/12 07:53:22;;;;;;;0.10;0.10;;;;;;;;;;5014016;28;20021;-90
2023/09/12 07:55:48;;;;;;;0.00;0.00;;;;;;;;;;5021007;28;20050;-92
2023/09/12 07:58:15;;;;;;;0.00;0.00;;;;;;;;;;5029257;28;20041;-91
2023/09/12 08:00:41;;;;;;;0.00;0.00;;;;;;;;;;5043451;28;20490;-91
2023/09/12 08:03:07;;;;;;;0.05;0.05;;;;;;;;;;5042530;28;20129;-92
2023/09/12 08:05:33;;;;;;;0.10;0.10;;;;;;;;;;5043993;28;20049;-90
2023/09/12 08:08:00;;;;;;;0.10;0.10;;;;;;;;;;5025617;28;20124;-92
2023/09/12 08:10:26;;;;;;;0.03;0.03;;;;;;;;;;5028611;28;20049;-91
2023/09/12 08:12:52;;;;;;;0.20;0.20;;;;;;;;;;5013666;28;20044;-88
2023/09/12 08:15:18;;;;;;;0.10;0.10;;;;;;;;;;5029564;28;20138;-93
2023/09/12 08:17:45;;;;;;;0.20;0.20;;;;;;;;;;5025058;28;20081;-91
2023/09/12 08:20:14;;;;;;;0.00;0.00;;;;;;;;;;5027414;28;20060;-90
2023/09/12 08:22:40;;;;;;;0.00;0.00;;;;;;;;;;5042740;28;20071;-90
2023/09/12 08:25:07;;;;;;;0.10;0.10;;;;;;;;;;5026373;28;20057;-91
2023/09/12 08:27:33;;;;;;;0.03;0.03;;;;;;;;;;5026620;28;20049;-90
2023/09/12 08:29:59;;;;;;;0.00;0.00;;;;;;;;;;5025657;28;20048;-89
2023/09/12 08:32:25;;;;;;;0.10;0.10;;;;;;;;;;5026276;28;20645;-91
2023/09/12 08:34:51;;;;;;;0.10;0.10;;;;;;;;;;5024762;28;20063;-88
2023/09/12 08:37:17;;;;;;;0.00;0.00;;;;;;;;;;5025138;28;20045;-92
2023/09/12 08:39:45;;;;;;;0.10;0.10;;;;;;;;;;5041869;28;20041;-89
2023/09/12 08:42:15;;;;;;;0.03;0.03;;;;;;;;;;5026767;28;20561;-92
2023/09/12 08:44:42;;;;;;;0.00;0.00;;;;;;;;;;5042787;28;20044;-91
2023/09/12 08:47:10;;;;;;;0.10;0.10;;;;;;;;;;5041761;28;20077;-94
2023/09/12 08:49:37;;;;;;;0.10;0.10;;;;;;;;;;5027390;28;20073;-87
2023/09/12 08:52:03;;;;;;;0.10;0.10;;;;;;;;;;5026150;28;20409;-89
2023/09/12 08:54:29;;;;;;;0.00;0.00;;;;;;;;;;5025180;28;20566;-90
2023/09/12 08:56:59;;;;;;;0.10;0.10;;;;;;;;;;5043926;28;20037;-91
2023/09/12 08:59:26;;;;;;;0.00;0.00;;;;;;;;;;5024799;28;20045;-89
2023/09/12 09:01:53;;;;;;;0.00;0.00;;;;;;;;;;5024468;28;20485;-89
2023/09/12 09:04:19;;;;;;;0.00;0.00;;;;;;;;;;5025287;28;20095;-89
2023/09/12 09:06:46;;;;;;;0.10;0.10;;;;;;;;;;5024530;28;20049;-91
2023/09/12 09:09:13;;;;;;;0.10;0.10;;;;;;;;;;5024956;28;20048;-89
2023/09/12 09:11:39;;;;;;;0.10;0.10;;;;;;;;;;5024767;28;20041;-88
2023/09/12 09:14:05;;;;;;;0.00;0.00;;;;;;;;;;5024112;28;20152;-90
2023/09/12 09:16:31;;;;;;;0.10;0.10;;;;;;;;;;5018830;28;20081;-88
2023/09/12 09:18:59;;;;;;;0.00;0.00;;;;;;;;;;5004448;28;20067;-88
2023/09/12 09:21:27;;;;;;;0.00;0.00;;;;;;;;;;5004711;28;20041;-90
2023/09/12 09:23:55;;;;;;;0.10;0.10;;;;;;;;;;5004850;28;20056;-91
2023/09/12 09:26:21;;;;;;;0.00;0.00;;;;;;;;;;5012374;28;20482;-91
2023/09/12 09:29:06;;;;;;;0.08;0.08;;;;;;;;;;5043050;28;20041;-89
2023/09/12 09:31:33;;;;;;;0.00;0.00;;;;;;;;;;5019349;28;20060;-88
2023/09/12 09:33:59;;;;;;;0.05;0.05;;;;;;;;;;5004545;28;20030;-90
2023/09/12 09:36:26;;;;;;;0.00;0.00;;;;;;;;;;5025753;28;20133;-91
2023/09/12 09:38:52;;;;;;;0.15;0.15;;;;;;;;;;5025038;28;20560;-90
2023/09/12 09:41:21;;;;;;;0.20;0.20;;;;;;;;;;5026199;28;20099;-93
2023/09/12 09:43:50;;;;;;;0.10;0.10;;;;;;;;;;5026862;28;20058;-89
2023/09/12 09:46:17;;;;;;;0.00;0.00;;;;;;;;;;5040978;28;20038;-91
2023/09/12 09:48:49;;;;;;;0.10;0.10;;;;;;;;;;5036784;28;20127;-89
2023/09/12 09:51:16;;;;;;;0.00;0.00;;;;;;;;;;5042018;28;20087;-91
2023/09/12 09:53:43;;;;;;;0.10;0.10;;;;;;;;;;5040765;28;20038;-91
2023/09/12 09:56:16;;;;;;;0.10;0.10;;;;;;;;;;5014529;28;20490;-91
2023/09/12 09:58:48;;;;;;;0.10;0.10;;;;;;;;;;5035814;28;20076;-93
2023/09/12 10:01:22;;;;;;;0.15;0.15;;;;;;;;;;5025452;28;20105;-91
2023/09/12 10:03:51;;;;;;;0.10;0.10;;;;;;;;;;5023258;28;20057;-90
2023/09/12 10:06:19;;;;;;;0.00;0.00;;;;;;;;;;5024766;28;20544;-89
2023/09/12 10:08:52;;;;;;;0.00;0.00;;;;;;;;;;5039458;28;20045;-89
2023/09/12 10:11:19;;;;;;;0.10;0.10;;;;;;;;;;5040020;28;20083;-89
2023/09/12 10:13:59;;;;;;;0.10;0.10;;;;;;;;;;5035397;28;20394;-89
2023/09/12 10:16:30;;;;;;;0.15;0.15;;;;;;;;;;5039568;28;20037;-90
2023/09/12 10:19:06;;;;;;;0.00;0.00;;;;;;;;;;5035150;28;20042;-88
2023/09/12 10:21:33;;;;;;;0.10;0.10;;;;;;;;;;5022547;28;20088;-87
2023/09/12 10:24:00;;;;;;;0.08;0.08;;;;;;;;;;5037446;28;20041;-88
2023/09/12 10:26:26;;;;;;;0.10;0.10;;;;;;;;;;5021736;28;20034;-89
2023/09/12 10:28:52;;;;;;;0.10;0.10;;;;;;;;;;5021584;28;20033;-88
2023/09/12 10:31:19;;;;;;;0.05;0.05;;;;;;;;;;5037731;28;20121;-86
2023/09/12 10:33:47;;;;;;;0.20;0.20;;;;;;;;;;5019062;28;20053;-88
2023/09/12 10:36:14;;;;;;;0.10;0.10;;;;;;;;;;5020341;28;20049;-88
2023/09/12 10:38:44;;;;;;;0.00;0.00;;;;;;;;;;5035819;28;20081;-89
2023/09/12 10:41:14;;;;;;;0.10;0.10;;;;;;;;;;5024386;28;20095;-88
2023/09/12 10:43:41;;;;;;;0.00;0.00;;;;;;;;;;5024679;28;20433;-88
2023/09/12 10:46:08;;;;;;;0.00;0.00;;;;;;;;;;5024642;28;20041;-88
2023/09/12 10:48:35;;;;;;;0.00;0.00;;;;;;;;;;5025396;28;20540;-88
2023/09/12 10:51:03;;;;;;;0.13;0.13;;;;;;;;;;5041600;28;20037;-88
2023/09/12 10:53:30;;;;;;;0.10;0.10;;;;;;;;;;5023792;28;20407;-88
2023/09/12 10:56:00;;;;;;;0.13;0.13;;;;;;;;;;5023646;28;20043;-88
2023/09/12 10:58:27;;;;;;;0.10;0.10;;;;;;;;;;5024626;28;20041;-88
2023/09/12 11:01:13;;;;;;;0.10;0.10;;;;;;;;;;5025601;28;20127;-87
2023/09/12 11:03:39;;;;;;;0.00;0.00;;;;;;;;;;5023338;28;20056;-88
2023/09/12 11:06:18;;;;;;;0.20;0.20;;;;;;;;;;5024102;28;20473;-87
2023/09/12 11:09:10;;;;;;;0.17;0.17;;;;;;;;;;5023632;28;20038;-88
2023/09/12 11:11:37;;;;;;;0.20;0.20;;;;;;;;;;5025127;28;20037;-88
2023/09/12 11:14:04;;;;;;;0.10;0.10;;;;;;;;;;5023811;28;20041;-86
2023/09/12 11:16:50;;;;;;;0.00;0.00;;;;;;;;;;5030102;28;20038;-87
2023/09/12 11:19:22;;;;;;;0.13;0.13;;;;;;;;;;5038516;28;20045;-88
2023/09/12 11:22:21;;;;;;;0.00;0.00;;;;;;;;;;5025160;28;20060;-88
2023/09/12 11:24:47;;;;;;;0.10;0.10;;;;;;;;;;5023465;28;20042;-91
2023/09/12 11:27:13;;;;;;;0.10;0.10;;;;;;;;;;5026734;28;20053;-92
2023/09/12 11:29:40;;;;;;;0.10;0.10;;;;;;;;;;5025719;28;20053;-88
2023/09/12 11:32:06;;;;;;;0.00;0.00;;;;;;;;;;5043006;28;20560;-89
2023/09/12 11:34:38;;;;;;;0.03;0.03;;;;;;;;;;5021436;28;20056;-91
2023/09/12 11:37:26;;;;;;;0.10;0.10;;;;;;;;;;5019704;28;20053;-91
2023/09/12 11:40:00;;;;;;;0.00;0.00;;;;;;;;;;5028655;28;20041;-90
2023/09/12 11:42:30;;;;;;;0.10;0.10;;;;;;;;;;5046556;28;20025;-90
2023/09/12 11:44:56;;;;;;;0.03;0.03;;;;;;;;;;5015149;28;20092;-94
2023/09/12 11:47:22;;;;;;;0.15;0.15;;;;;;;;;;5017789;28;20061;-94
2023/09/12 11:50:18;;;;;;;0.10;0.10;;;;;;;;;;5025419;28;20042;-93
2023/09/12 11:52:46;;;;;;;0.20;0.20;;;;;;;;;;5025826;28;20041;-92
2023/09/12 11:55:22;;;;;;;0.00;0.00;;;;;;;;;;5042246;28;20130;-90
2023/09/12 11:57:49;;;;;;;0.17;0.17;;;;;;;;;;5027121;28;20045;-90
2023/09/12 12:00:34;;;;;;;0.00;0.00;;;;;;;;;;5025785;28;20041;-92
2023/09/12 12:03:07;;;;;;;0.10;0.10;;;;;;;;;;5026333;28;20138;-91
2023/09/12 12:05:35;;;;;;;0.10;0.10;;;;;;;;;;5025384;28;20100;-90
2023/09/12 12:08:03;;;;;;;0.10;0.10;;;;;;;;;;5024776;28;20068;-88
2023/09/12 12:10:30;;;;;;;0.08;0.08;;;;;;;;;;5024773;28;20042;-91
2023/09/12 12:13:12;;;;;;;0.10;0.10;;;;;;;;;;5042437;28;20073;-90
2023/09/12 12:15:43;;;;;;;0.08;0.08;;;;;;;;;;5024328;28;20083;-89
2023/09/12 12:18:10;;;;;;;0.00;0.00;;;;;;;;;;5030774;28;20116;-89
2023/09/12 12:20:36;;;;;;;0.10;0.10;;;;;;;;;;5006004;28;20042;-92
2023/09/12 12:23:02;;;;;;;0.00;0.00;;;;;;;;;;5008346;28;20056;-95
2023/09/12 12:25:44;;;;;;;0.00;0.00;;;;;;;;;;5008235;28;20046;-90
2023/09/12 12:28:10;;;;;;;0.05;0.05;;;;;;;;;;5005937;28;20038;-89
2023/09/12 12:30:37;;;;;;;0.10;0.10;;;;;;;;;;5019494;28;20643;-87
2023/09/12 12:33:10;;;;;;;0.00;0.00;;;;;;;;;;5039122;28;20049;-88
2023/09/12 12:35:36;;;;;;;0.00;0.00;;;;;;;;;;5023113;28;20045;-88
2023/09/12 12:38:03;;;;;;;0.10;0.10;;;;;;;;;;5024470;28;20045;-90
2023/09/12 12:40:29;;;;;;;0.08;0.08;;;;;;;;;;5031771;28;20032;-89
2023/09/12 12:42:55;;;;;;;0.10;0.10;;;;;;;;;;5043209;28;20047;-87
2023/09/12 12:45:22;;;;;;;0.05;0.05;;;;;;;;;;5043184;28;20033;-88
2023/09/12 12:47:52;;;;;;;0.00;0.00;;;;;;;;;;5043118;28;20120;-87
2023/09/12 12:50:20;;;;;;;0.20;0.20;;;;;;;;;;5026758;28;20406;-88
2023/09/12 12:52:47;;;;;;;0.10;0.10;;;;;;;;;;5028048;28;20060;-92
2023/09/12 12:55:17;;;;;;;0.10;0.10;;;;;;;;;;5025612;28;20045;-90
2023/09/12 12:57:44;;;;;;;0.20;0.20;;;;;;;;;;5027022;28;20034;-93
2023/09/12 13:00:12;;;;;;;0.08;0.08;;;;;;;;;;5026761;28;20046;-91
2023/09/12 13:02:38;;;;;;;0.10;0.10;;;;;;;;;;5014780;28;20507;-93
2023/09/12 13:05:07;;;;;;;0.10;0.10;;;;;;;;;;5016522;28;20045;-92
2023/09/12 13:07:35;;;;;;;0.10;0.10;;;;;;;;;;5040386;28;20049;-89
2023/09/12 13:10:04;;;;;;;0.00;0.00;;;;;;;;;;5039597;28;20041;-88
2023/09/12 13:12:34;;;;;;;0.05;0.05;;;;;;;;;;5024193;28;20033;-89
2023/09/12 13:15:02;;;;;;;0.10;0.10;;;;;;;;;;5023313;28;20048;-90
2023/09/12 13:20:33;;;;;;;0.20;0.20;;;;;;;;;;5040621;28;20072;-92
2023/09/12 13:23:11;;;;;;;0.10;0.10;;;;;;;;;;5041579;28;20025;-91
2023/09/12 13:25:43;;;;;;;0.10;0.10;;;;;;;;;;5041561;28;20053;-92
2023/09/12 13:28:15;;;;;;;0.10;0.10;;;;;;;;;;5024546;28;20025;-93
2023/09/12 13:30:41;;;;;;;0.15;0.15;;;;;;;;;;5011073;28;20026;-91
2023/09/12 13:33:07;;;;;;;0.03;0.03;;;;;;;;;;5030646;28;20065;-91
2023/09/12 13:35:33;;;;;;;0.00;0.00;;;;;;;;;;5037687;28;20049;-89
2023/09/12 13:37:59;;;;;;;0.20;0.20;;;;;;;;;;5038205;28;20025;-90
2023/09/12 13:40:27;;;;;;;0.05;0.05;;;;;;;;;;5025733;28;20048;-93
2023/09/12 13:42:57;;;;;;;0.10;0.10;;;;;;;;;;5043260;28;20052;-90
2023/09/12 13:45:23;;;;;;;0.10;0.10;;;;;;;;;;5016798;28;20418;-94
2023/09/12 13:47:55;;;;;;;0.20;0.20;;;;;;;;;;5023170;28;20549;-93
2023/09/12 13:50:23;;;;;;;0.10;0.10;;;;;;;;;;5037705;28;20033;-85
2023/09/12 13:52:49;;;;;;;0.10;0.10;;;;;;;;;;5046113;28;20040;-88
2023/09/12 13:55:29;;;;;;;0.17;0.17;;;;;;;;;;5020942;28;20124;-90
2023/09/12 13:57:57;;;;;;;0.10;0.10;;;;;;;;;;5026397;28;20044;-88
2023/09/12 14:00:33;;;;;;;0.00;0.00;;;;;;;;;;5031156;28;20046;-89
2023/09/12 14:03:22;;;;;;;0.00;0.00;;;;;;;;;;5035626;28;20085;-88
2023/09/12 14:05:48;;;;;;;0.00;0.00;;;;;;;;;;5038359;28;20056;-88
2023/09/12 14:08:14;;;;;;;0.00;0.00;;;;;;;;;;5021720;28;20041;-87
2023/09/12 14:10:40;;;;;;;0.00;0.00;;;;;;;;;;5017156;28;20078;-90
2023/09/12 14:16:08;;;;;;;0.00;0.00;;;;;;;;;;5029705;28;20045;-89
2023/09/12 14:18:38;;;;;;;0.10;0.10;;;;;;;;;;5023234;28;20129;-91
2023/09/12 14:21:13;;;;;;;0.00;0.00;;;;;;;;;;5023286;28;20076;-90
2023/09/12 14:23:44;;;;;;;0.10;0.10;;;;;;;;;;5028259;28;20048;-91
2023/09/12 14:26:20;;;;;;;0.00;0.00;;;;;;;;;;5044672;28;20497;-91
2023/09/12 14:28:46;;;;;;;0.10;0.10;;;;;;;;;;5029886;28;20115;-90
2023/09/12 14:31:28;;;;;;;0.15;0.15;;;;;;;;;;5024040;28;20079;-86
2023/09/12 14:34:00;;;;;;;0.00;0.00;;;;;;;;;;5008425;28;20060;-86
2023/09/12 14:36:26;;;;;;;0.00;0.00;;;;;;;;;;5011487;28;20123;-91
2023/09/12 14:38:52;;;;;;;0.00;0.00;;;;;;;;;;5042063;28;20045;-90
2023/09/12 14:41:18;;;;;;;0.05;0.05;;;;;;;;;;5044477;28;21342;-89
2023/09/12 14:43:45;;;;;;;0.10;0.10;;;;;;;;;;5043743;28;20041;-89
2023/09/12 14:46:12;;;;;;;0.20;0.20;;;;;;;;;;5026968;28;20064;-92
2023/09/12 14:48:41;;;;;;;0.00;0.00;;;;;;;;;;5041410;28;20054;-95
2023/09/12 14:51:07;;;;;;;0.10;0.10;;;;;;;;;;5024505;28;20072;-86
2023/09/12 14:53:43;;;;;;;0.00;0.00;;;;;;;;;;5034741;28;20049;-84